sensor_id;sensor_type;location;lat;lon;timestamp;temperature;humidity
71206;SHT31;58935;54.498;18.544;2023-11-19T00:02:07;3.50;80.00
71206;SHT31;58935;54.498;18.544;2023-11-19T00:04:36;3.51;80.06
71206;SHT31;58935;54.498;18.544;2023-11-19T00:07:05;3.51;80.08
71206;SHT31;58935;54.498;18.544;2023-11-19T00:09:33;3.50;80.07
71206;SHT31;58935;54.498;18.544;2023-11-19T00:11:58;3.47;79.99
71206;SHT31;58935;54.498;18.544;2023-11-19T00:14:25;3.44;80.06
71206;SHT31;58935;54.498;18.544;2023-11-19T00:16:51;3.45;80.15
71206;SHT31;58935;54.498;18.544;2023-11-19T00:19:17;3.43;80.15
71206;SHT31;58935;54.498;18.544;2023-11-19T00:21:42;3.42;80.19
71206;SHT31;58935;54.498;18.544;2023-11-19T00:24:10;3.41;80.11
71206;SHT31;58935;54.498;18.544;2023-11-19T00:26:38;3.39;80.19
71206;SHT31;58935;54.498;18.544;2023-11-19T00:29:03;3.39;80.21
71206;SHT31;58935;54.498;18.544;2023-11-19T00:31:29;3.35;80.21
71206;SHT31;58935;54.498;18.544;2023-11-19T00:33:54;3.33;80.31
71206;SHT31;58935;54.498;18.544;2023-11-19T00:36:20;3.32;80.31
71206;SHT31;58935;54.498;18.544;2023-11-19T00:38:49;3.31;80.41
71206;SHT31;58935;54.498;18.544;2023-11-19T00:41:14;3.30;80.50
71206;SHT31;58935;54.498;18.544;2023-11-19T00:43:41;3.29;80.62
71206;SHT31;58935;54.498;18.544;2023-11-19T00:46:07;3.33;80.70
71206;SHT31;58935;54.498;18.544;2023-11-19T00:48:32;3.34;80.66
71206;SHT31;58935;54.498;18.544;2023-11-19T00:51:02;3.33;80.47
71206;SHT31;58935;54.498;18.544;2023-11-19T00:53:29;3.28;80.13
71206;SHT31;58935;54.498;18.544;2023-11-19T00:55:55;3.20;79.79
71206;SHT31;58935;54.498;18.544;2023-11-19T00:58:20;3.11;79.61
71206;SHT31;58935;54.498;18.544;2023-11-19T01:00:45;3.03;79.70
71206;SHT31;58935;54.498;18.544;2023-11-19T01:03:11;2.99;79.84
71206;SHT31;58935;54.498;18.544;2023-11-19T01:05:36;2.96;79.87
71206;SHT31;58935;54.498;18.544;2023-11-19T01:08:02;2.96;80.13
71206;SHT31;58935;54.498;18.544;2023-11-19T01:10:29;3.00;80.29
71206;SHT31;58935;54.498;18.544;2023-11-19T01:12:55;3.02;80.21
71206;SHT31;58935;54.498;18.544;2023-11-19T01:15:20;3.04;80.18
71206;SHT31;58935;54.498;18.544;2023-11-19T01:17:46;3.05;80.13
71206;SHT31;58935;54.498;18.544;2023-11-19T01:20:16;3.07;80.20
71206;SHT31;58935;54.498;18.544;2023-11-19T01:22:42;3.10;80.28
71206;SHT31;58935;54.498;18.544;2023-11-19T01:25:08;3.14;80.23
71206;SHT31;58935;54.498;18.544;2023-11-19T01:27:36;3.15;80.15
71206;SHT31;58935;54.498;18.544;2023-11-19T01:30:03;3.17;80.22
71206;SHT31;58935;54.498;18.544;2023-11-19T01:32:30;3.20;80.17
71206;SHT31;58935;54.498;18.544;2023-11-19T01:34:56;3.19;79.92
71206;SHT31;58935;54.498;18.544;2023-11-19T01:37:23;3.21;80.22
71206;SHT31;58935;54.498;18.544;2023-11-19T01:39:51;3.25;80.24
71206;SHT31;58935;54.498;18.544;2023-11-19T01:42:16;3.27;80.08
71206;SHT31;58935;54.498;18.544;2023-11-19T01:44:54;3.30;80.03
71206;SHT31;58935;54.498;18.544;2023-11-19T01:47:22;3.32;79.97
71206;SHT31;58935;54.498;18.544;2023-11-19T01:49:48;3.34;80.00
71206;SHT31;58935;54.498;18.544;2023-11-19T01:52:13;3.36;79.96
71206;SHT31;58935;54.498;18.544;2023-11-19T01:54:41;3.38;79.98
71206;SHT31;58935;54.498;18.544;2023-11-19T01:57:10;3.41;80.02
71206;SHT31;58935;54.498;18.544;2023-11-19T01:59:38;3.45;79.96
71206;SHT31;58935;54.498;18.544;2023-11-19T02:02:07;3.45;79.72
71206;SHT31;58935;54.498;18.544;2023-11-19T02:04:37;3.42;79.54
71206;SHT31;58935;54.498;18.544;2023-11-19T02:07:06;3.38;79.66
71206;SHT31;58935;54.498;18.544;2023-11-19T02:09:32;3.35;79.68
71206;SHT31;58935;54.498;18.544;2023-11-19T02:11:58;3.30;79.70
71206;SHT31;58935;54.498;18.544;2023-11-19T02:14:24;3.26;79.80
71206;SHT31;58935;54.498;18.544;2023-11-19T02:16:53;3.24;79.98
71206;SHT31;58935;54.498;18.544;2023-11-19T02:19:19;3.25;80.08
71206;SHT31;58935;54.498;18.544;2023-11-19T02:21:45;3.26;80.06
71206;SHT31;58935;54.498;18.544;2023-11-19T02:24:10;3.26;79.88
71206;SHT31;58935;54.498;18.544;2023-11-19T02:26:39;3.25;79.83
71206;SHT31;58935;54.498;18.544;2023-11-19T02:29:11;3.25;79.71
71206;SHT31;58935;54.498;18.544;2023-11-19T02:31:36;3.24;79.47
71206;SHT31;58935;54.498;18.544;2023-11-19T02:34:02;3.24;79.41
71206;SHT31;58935;54.498;18.544;2023-11-19T02:36:27;3.24;79.37
71206;SHT31;58935;54.498;18.544;2023-11-19T02:38:53;3.23;79.23
71206;SHT31;58935;54.498;18.544;2023-11-19T02:41:18;3.24;79.09
71206;SHT31;58935;54.498;18.544;2023-11-19T02:43:46;3.23;78.99
71206;SHT31;58935;54.498;18.544;2023-11-19T02:46:13;3.23;78.84
71206;SHT31;58935;54.498;18.544;2023-11-19T02:48:39;3.23;78.73
71206;SHT31;58935;54.498;18.544;2023-11-19T02:51:04;3.20;78.53
71206;SHT31;58935;54.498;18.544;2023-11-19T02:53:34;3.21;78.41
71206;SHT31;58935;54.498;18.544;2023-11-19T02:56:00;3.20;78.24
71206;SHT31;58935;54.498;18.544;2023-11-19T02:58:34;3.17;78.11
71206;SHT31;58935;54.498;18.544;2023-11-19T03:00:59;3.17;77.89
71206;SHT31;58935;54.498;18.544;2023-11-19T03:03:44;3.16;77.61
71206;SHT31;58935;54.498;18.544;2023-11-19T03:06:14;3.14;77.55
71206;SHT31;58935;54.498;18.544;2023-11-19T03:08:39;3.13;77.47
71206;SHT31;58935;54.498;18.544;2023-11-19T03:11:05;3.12;77.31
71206;SHT31;58935;54.498;18.544;2023-11-19T03:13:35;3.11;77.12
71206;SHT31;58935;54.498;18.544;2023-11-19T03:16:00;3.11;77.09
71206;SHT31;58935;54.498;18.544;2023-11-19T03:18:26;3.10;76.93
71206;SHT31;58935;54.498;18.544;2023-11-19T03:20:53;3.09;76.91
71206;SHT31;58935;54.498;18.544;2023-11-19T03:23:23;3.09;76.88
71206;SHT31;58935;54.498;18.544;2023-11-19T03:25:49;3.09;76.76
71206;SHT31;58935;54.498;18.544;2023-11-19T03:28:17;3.10;76.66
71206;SHT31;58935;54.498;18.544;2023-11-19T03:30:42;3.07;76.43
71206;SHT31;58935;54.498;18.544;2023-11-19T03:33:09;3.03;76.36
71206;SHT31;58935;54.498;18.544;2023-11-19T03:35:35;3.00;76.28
71206;SHT31;58935;54.498;18.544;2023-11-19T03:38:02;2.95;76.23
71206;SHT31;58935;54.498;18.544;2023-11-19T03:40:28;2.91;76.31
71206;SHT31;58935;54.498;18.544;2023-11-19T03:42:55;2.88;76.34
71206;SHT31;58935;54.498;18.544;2023-11-19T03:45:21;2.85;76.43
71206;SHT31;58935;54.498;18.544;2023-11-19T03:47:46;2.81;76.47
71206;SHT31;58935;54.498;18.544;2023-11-19T03:50:14;2.77;76.56
71206;SHT31;58935;54.498;18.544;2023-11-19T03:52:40;2.73;76.64
71206;SHT31;58935;54.498;18.544;2023-11-19T03:55:06;2.69;76.70
71206;SHT31;58935;54.498;18.544;2023-11-19T03:57:33;2.64;76.80
71206;SHT31;58935;54.498;18.544;2023-11-19T03:59:59;2.59;76.98
71206;SHT31;58935;54.498;18.544;2023-11-19T04:02:24;2.55;77.09
71206;SHT31;58935;54.498;18.544;2023-11-19T04:04:53;2.52;77.22
71206;SHT31;58935;54.498;18.544;2023-11-19T04:07:19;2.50;77.33
71206;SHT31;58935;54.498;18.544;2023-11-19T04:09:45;2.48;77.44
71206;SHT31;58935;54.498;18.544;2023-11-19T04:12:11;2.47;77.55
71206;SHT31;58935;54.498;18.544;2023-11-19T04:14:37;2.48;77.61
71206;SHT31;58935;54.498;18.544;2023-11-19T04:17:02;2.46;77.59
71206;SHT31;58935;54.498;18.544;2023-11-19T04:19:32;2.43;77.69
71206;SHT31;58935;54.498;18.544;2023-11-19T04:22:00;2.42;77.80
71206;SHT31;58935;54.498;18.544;2023-11-19T04:24:25;2.40;77.77
71206;SHT31;58935;54.498;18.544;2023-11-19T04:26:51;2.37;77.88
71206;SHT31;58935;54.498;18.544;2023-11-19T04:29:18;2.34;77.91
71206;SHT31;58935;54.498;18.544;2023-11-19T04:31:46;2.32;77.94
71206;SHT31;58935;54.498;18.544;2023-11-19T04:34:11;2.28;77.96
71206;SHT31;58935;54.498;18.544;2023-11-19T04:36:37;2.28;78.07
71206;SHT31;58935;54.498;18.544;2023-11-19T04:39:03;2.27;78.03
71206;SHT31;58935;54.498;18.544;2023-11-19T04:41:35;2.25;78.06
71206;SHT31;58935;54.498;18.544;2023-11-19T04:44:01;2.23;78.00
71206;SHT31;58935;54.498;18.544;2023-11-19T04:46:27;2.20;77.94
71206;SHT31;58935;54.498;18.544;2023-11-19T04:48:52;2.17;77.98
71206;SHT31;58935;54.498;18.544;2023-11-19T04:51:17;2.14;78.04
71206;SHT31;58935;54.498;18.544;2023-11-19T04:53:43;2.12;78.05
71206;SHT31;58935;54.498;18.544;2023-11-19T04:56:09;2.09;78.00
71206;SHT31;58935;54.498;18.544;2023-11-19T04:58:35;2.06;78.09
71206;SHT31;58935;54.498;18.544;2023-11-19T05:01:02;2.05;78.10
71206;SHT31;58935;54.498;18.544;2023-11-19T05:03:28;2.03;78.09
71206;SHT31;58935;54.498;18.544;2023-11-19T05:05:54;2.01;78.10
71206;SHT31;58935;54.498;18.544;2023-11-19T05:08:21;2.01;78.12
71206;SHT31;58935;54.498;18.544;2023-11-19T05:10:47;1.98;78.03
71206;SHT31;58935;54.498;18.544;2023-11-19T05:13:14;1.97;78.08
71206;SHT31;58935;54.498;18.544;2023-11-19T05:15:42;1.95;78.02
71206;SHT31;58935;54.498;18.544;2023-11-19T05:18:07;1.91;78.04
71206;SHT31;58935;54.498;18.544;2023-11-19T05:20:33;1.90;78.01
71206;SHT31;58935;54.498;18.544;2023-11-19T05:22:59;1.88;77.97
71206;SHT31;58935;54.498;18.544;2023-11-19T05:25:25;1.87;77.90
71206;SHT31;58935;54.498;18.544;2023-11-19T05:27:51;1.84;77.96
71206;SHT31;58935;54.498;18.544;2023-11-19T05:30:17;1.80;77.98
71206;SHT31;58935;54.498;18.544;2023-11-19T05:32:45;1.76;77.93
71206;SHT31;58935;54.498;18.544;2023-11-19T05:35:11;1.72;78.00
71206;SHT31;58935;54.498;18.544;2023-11-19T05:37:36;1.69;78.08
71206;SHT31;58935;54.498;18.544;2023-11-19T05:40:03;1.67;78.15
71206;SHT31;58935;54.498;18.544;2023-11-19T05:42:31;1.64;78.25
71206;SHT31;58935;54.498;18.544;2023-11-19T05:44:57;1.61;78.44
71206;SHT31;58935;54.498;18.544;2023-11-19T05:47:25;1.60;78.56
71206;SHT31;58935;54.498;18.544;2023-11-19T05:49:50;1.57;78.72
71206;SHT31;58935;54.498;18.544;2023-11-19T05:52:15;1.54;78.90
71206;SHT31;58935;54.498;18.544;2023-11-19T05:54:41;1.53;79.07
71206;SHT31;58935;54.498;18.544;2023-11-19T05:57:06;1.51;79.21
71206;SHT31;58935;54.498;18.544;2023-11-19T05:59:34;1.51;79.29
71206;SHT31;58935;54.498;18.544;2023-11-19T06:02:01;1.51;79.41
71206;SHT31;58935;54.498;18.544;2023-11-19T06:04:29;1.50;79.50
71206;SHT31;58935;54.498;18.544;2023-11-19T06:06:54;1.47;79.58
71206;SHT31;58935;54.498;18.544;2023-11-19T06:09:24;1.44;79.61
71206;SHT31;58935;54.498;18.544;2023-11-19T06:11:52;1.41;79.73
71206;SHT31;58935;54.498;18.544;2023-11-19T06:14:18;1.39;79.96
71206;SHT31;58935;54.498;18.544;2023-11-19T06:16:46;1.39;79.98
71206;SHT31;58935;54.498;18.544;2023-11-19T06:19:13;1.38;80.00
71206;SHT31;58935;54.498;18.544;2023-11-19T06:21:39;1.38;80.07
71206;SHT31;58935;54.498;18.544;2023-11-19T06:24:04;1.35;80.03
71206;SHT31;58935;54.498;18.544;2023-11-19T06:26:35;1.32;80.10
71206;SHT31;58935;54.498;18.544;2023-11-19T06:29:00;1.30;80.18
71206;SHT31;58935;54.498;18.544;2023-11-19T06:31:26;1.30;80.29
71206;SHT31;58935;54.498;18.544;2023-11-19T06:33:51;1.29;80.37
71206;SHT31;58935;54.498;18.544;2023-11-19T06:36:18;1.31;80.44
71206;SHT31;58935;54.498;18.544;2023-11-19T06:38:44;1.35;80.43
71206;SHT31;58935;54.498;18.544;2023-11-19T06:41:09;1.35;80.36
71206;SHT31;58935;54.498;18.544;2023-11-19T06:43:35;1.34;80.30
71206;SHT31;58935;54.498;18.544;2023-11-19T06:46:02;1.33;80.28
71206;SHT31;58935;54.498;18.544;2023-11-19T06:48:27;1.32;80.30
71206;SHT31;58935;54.498;18.544;2023-11-19T06:50:53;1.31;80.28
71206;SHT31;58935;54.498;18.544;2023-11-19T06:53:18;1.30;80.30
71206;SHT31;58935;54.498;18.544;2023-11-19T06:55:44;1.30;80.27
71206;SHT31;58935;54.498;18.544;2023-11-19T06:58:09;1.30;80.28
71206;SHT31;58935;54.498;18.544;2023-11-19T07:00:37;1.29;80.20
71206;SHT31;58935;54.498;18.544;2023-11-19T07:03:02;1.28;80.22
71206;SHT31;58935;54.498;18.544;2023-11-19T07:05:27;1.27;80.29
71206;SHT31;58935;54.498;18.544;2023-11-19T07:07:53;1.28;80.29
71206;SHT31;58935;54.498;18.544;2023-11-19T07:10:19;1.27;80.29
71206;SHT31;58935;54.498;18.544;2023-11-19T07:12:45;1.29;80.34
71206;SHT31;58935;54.498;18.544;2023-11-19T07:15:10;1.30;80.37
71206;SHT31;58935;54.498;18.544;2023-11-19T07:17:38;1.32;80.35
71206;SHT31;58935;54.498;18.544;2023-11-19T07:20:05;1.34;80.40
71206;SHT31;58935;54.498;18.544;2023-11-19T07:22:31;1.37;80.39
71206;SHT31;58935;54.498;18.544;2023-11-19T07:24:56;1.40;80.37
71206;SHT31;58935;54.498;18.544;2023-11-19T07:27:22;1.41;80.31
71206;SHT31;58935;54.498;18.544;2023-11-19T07:29:49;1.44;80.31
71206;SHT31;58935;54.498;18.544;2023-11-19T07:32:14;1.47;80.30
71206;SHT31;58935;54.498;18.544;2023-11-19T07:34:42;1.49;80.17
71206;SHT31;58935;54.498;18.544;2023-11-19T07:37:10;1.50;80.09
71206;SHT31;58935;54.498;18.544;2023-11-19T07:39:35;1.51;80.13
71206;SHT31;58935;54.498;18.544;2023-11-19T07:42:03;1.52;80.02
71206;SHT31;58935;54.498;18.544;2023-11-19T07:44:28;1.52;79.90
71206;SHT31;58935;54.498;18.544;2023-11-19T07:46:56;1.51;79.90
71206;SHT31;58935;54.498;18.544;2023-11-19T07:49:22;1.52;79.80
71206;SHT31;58935;54.498;18.544;2023-11-19T07:51:47;1.51;79.85
71206;SHT31;58935;54.498;18.544;2023-11-19T07:54:12;1.54;79.90
71206;SHT31;58935;54.498;18.544;2023-11-19T07:56:38;1.56;79.90
71206;SHT31;58935;54.498;18.544;2023-11-19T07:59:05;1.58;79.84
71206;SHT31;58935;54.498;18.544;2023-11-19T08:01:30;1.61;79.78
71206;SHT31;58935;54.498;18.544;2023-11-19T08:03:55;1.63;79.80
71206;SHT31;58935;54.498;18.544;2023-11-19T08:06:21;1.66;79.80
71206;SHT31;58935;54.498;18.544;2023-11-19T08:08:46;1.70;79.74
71206;SHT31;58935;54.498;18.544;2023-11-19T08:11:13;1.74;79.68
71206;SHT31;58935;54.498;18.544;2023-11-19T08:13:38;1.74;79.54
71206;SHT31;58935;54.498;18.544;2023-11-19T08:16:04;1.73;79.40
71206;SHT31;58935;54.498;18.544;2023-11-19T08:18:30;1.72;79.43
71206;SHT31;58935;54.498;18.544;2023-11-19T08:20:56;1.73;79.48
71206;SHT31;58935;54.498;18.544;2023-11-19T08:23:23;1.73;79.29
71206;SHT31;58935;54.498;18.544;2023-11-19T08:25:50;1.73;79.26
71206;SHT31;58935;54.498;18.544;2023-11-19T08:28:16;1.75;79.22
71206;SHT31;58935;54.498;18.544;2023-11-19T08:30:41;1.76;79.13
71206;SHT31;58935;54.498;18.544;2023-11-19T08:33:09;1.79;79.08
71206;SHT31;58935;54.498;18.544;2023-11-19T08:35:34;1.81;79.05
71206;SHT31;58935;54.498;18.544;2023-11-19T08:38:00;1.82;78.92
71206;SHT31;58935;54.498;18.544;2023-11-19T08:40:25;1.85;78.94
71206;SHT31;58935;54.498;18.544;2023-11-19T08:42:51;1.89;78.89
71206;SHT31;58935;54.498;18.544;2023-11-19T08:45:17;1.92;78.84
71206;SHT31;58935;54.498;18.544;2023-11-19T08:47:42;1.98;78.83
71206;SHT31;58935;54.498;18.544;2023-11-19T08:50:10;2.03;78.59
71206;SHT31;58935;54.498;18.544;2023-11-19T08:52:36;2.05;78.40
71206;SHT31;58935;54.498;18.544;2023-11-19T08:55:02;2.09;78.48
71206;SHT31;58935;54.498;18.544;2023-11-19T08:57:28;2.14;78.43
71206;SHT31;58935;54.498;18.544;2023-11-19T08:59:53;2.21;78.46
71206;SHT31;58935;54.498;18.544;2023-11-19T09:02:19;2.26;78.20
71206;SHT31;58935;54.498;18.544;2023-11-19T09:04:44;2.29;78.00
71206;SHT31;58935;54.498;18.544;2023-11-19T09:07:10;2.32;77.81
71206;SHT31;58935;54.498;18.544;2023-11-19T09:09:35;2.34;77.62
71206;SHT31;58935;54.498;18.544;2023-11-19T09:12:01;2.37;77.40
71206;SHT31;58935;54.498;18.544;2023-11-19T09:14:30;2.41;77.32
71206;SHT31;58935;54.498;18.544;2023-11-19T09:16:55;2.46;77.25
71206;SHT31;58935;54.498;18.544;2023-11-19T09:19:21;2.53;77.19
71206;SHT31;58935;54.498;18.544;2023-11-19T09:21:47;2.59;77.11
71206;SHT31;58935;54.498;18.544;2023-11-19T09:24:13;2.67;76.93
71206;SHT31;58935;54.498;18.544;2023-11-19T09:26:38;2.71;76.43
71206;SHT31;58935;54.498;18.544;2023-11-19T09:29:07;2.77;76.46
71206;SHT31;58935;54.498;18.544;2023-11-19T09:31:33;2.81;76.03
71206;SHT31;58935;54.498;18.544;2023-11-19T09:33:59;2.85;75.80
71206;SHT31;58935;54.498;18.544;2023-11-19T09:36:24;2.86;75.33
71206;SHT31;58935;54.498;18.544;2023-11-19T09:38:49;2.86;75.06
71206;SHT31;58935;54.498;18.544;2023-11-19T09:41:15;2.87;74.97
71206;SHT31;58935;54.498;18.544;2023-11-19T09:43:40;2.90;75.00
71206;SHT31;58935;54.498;18.544;2023-11-19T09:46:09;2.93;74.99
71206;SHT31;58935;54.498;18.544;2023-11-19T09:48:37;2.96;74.78
71206;SHT31;58935;54.498;18.544;2023-11-19T09:51:04;2.94;74.41
71206;SHT31;58935;54.498;18.544;2023-11-19T09:53:30;2.90;74.48
71206;SHT31;58935;54.498;18.544;2023-11-19T09:55:56;2.90;74.87
71206;SHT31;58935;54.498;18.544;2023-11-19T09:58:24;2.95;75.01
71206;SHT31;58935;54.498;18.544;2023-11-19T10:00:51;2.98;75.14
71206;SHT31;58935;54.498;18.544;2023-11-19T10:03:18;3.02;75.21
71206;SHT31;58935;54.498;18.544;2023-11-19T10:05:44;3.03;75.10
71206;SHT31;58935;54.498;18.544;2023-11-19T10:08:09;3.03;75.25
71206;SHT31;58935;54.498;18.544;2023-11-19T10:10:38;3.04;75.29
71206;SHT31;58935;54.498;18.544;2023-11-19T10:13:04;3.03;75.19
71206;SHT31;58935;54.498;18.544;2023-11-19T10:15:31;3.00;75.16
71206;SHT31;58935;54.498;18.544;2023-11-19T10:18:01;3.00;75.36
71206;SHT31;58935;54.498;18.544;2023-11-19T10:20:27;2.96;75.41
71206;SHT31;58935;54.498;18.544;2023-11-19T10:23:00;2.92;75.34
71206;SHT31;58935;54.498;18.544;2023-11-19T10:25:26;2.91;75.42
71206;SHT31;58935;54.498;18.544;2023-11-19T10:27:52;2.91;75.49
71206;SHT31;58935;54.498;18.544;2023-11-19T10:30:21;2.89;75.61
71206;SHT31;58935;54.498;18.544;2023-11-19T10:35:23;2.88;75.64
71206;SHT31;58935;54.498;18.544;2023-11-19T10:37:48;2.90;75.78
71206;SHT31;58935;54.498;18.544;2023-11-19T10:40:16;2.94;75.72
71206;SHT31;58935;54.498;18.544;2023-11-19T10:42:42;2.95;75.50
71206;SHT31;58935;54.498;18.544;2023-11-19T10:45:21;2.95;75.45
71206;SHT31;58935;54.498;18.544;2023-11-19T10:47:48;2.95;75.29
71206;SHT31;58935;54.498;18.544;2023-11-19T10:50:14;2.92;75.09
71206;SHT31;58935;54.498;18.544;2023-11-19T10:52:40;2.88;74.99
71206;SHT31;58935;54.498;18.544;2023-11-19T10:55:06;2.83;74.84
71206;SHT31;58935;54.498;18.544;2023-11-19T10:57:36;2.78;74.98
71206;SHT31;58935;54.498;18.544;2023-11-19T11:00:04;2.74;75.28
71206;SHT31;58935;54.498;18.544;2023-11-19T11:02:37;2.74;75.35
71206;SHT31;58935;54.498;18.544;2023-11-19T11:05:12;2.76;75.58
71206;SHT31;58935;54.498;18.544;2023-11-19T11:07:39;2.80;75.43
71206;SHT31;58935;54.498;18.544;2023-11-19T11:10:06;2.81;75.32
71206;SHT31;58935;54.498;18.544;2023-11-19T11:12:34;2.83;75.55
71206;SHT31;58935;54.498;18.544;2023-11-19T11:15:04;2.83;75.51
71206;SHT31;58935;54.498;18.544;2023-11-19T11:17:31;2.83;75.42
71206;SHT31;58935;54.498;18.544;2023-11-19T11:19:58;2.82;75.45
71206;SHT31;58935;54.498;18.544;2023-11-19T11:22:27;2.83;75.40
71206;SHT31;58935;54.498;18.544;2023-11-19T11:25:03;2.82;75.32
71206;SHT31;58935;54.498;18.544;2023-11-19T11:30:49;2.79;75.45
71206;SHT31;58935;54.498;18.544;2023-11-19T11:35:49;2.79;75.72
71206;SHT31;58935;54.498;18.544;2023-11-19T11:38:22;2.78;75.77
71206;SHT31;58935;54.498;18.544;2023-11-19T11:45:51;2.72;75.93
71206;SHT31;58935;54.498;18.544;2023-11-19T11:48:17;2.71;76.26
71206;SHT31;58935;54.498;18.544;2023-11-19T11:50:49;2.73;76.43
71206;SHT31;58935;54.498;18.544;2023-11-19T11:53:18;2.74;76.52
71206;SHT31;58935;54.498;18.544;2023-11-19T11:58:19;2.74;76.42
71206;SHT31;58935;54.498;18.544;2023-11-19T12:00:45;2.74;76.37
71206;SHT31;58935;54.498;18.544;2023-11-19T12:03:12;2.73;76.40
71206;SHT31;58935;54.498;18.544;2023-11-19T12:05:38;2.74;76.38
71206;SHT31;58935;54.498;18.544;2023-11-19T12:08:11;2.74;76.45
71206;SHT31;58935;54.498;18.544;2023-11-19T12:13:13;2.80;76.45
71206;SHT31;58935;54.498;18.544;2023-11-19T12:18:15;2.81;76.69
71206;SHT31;58935;54.498;18.544;2023-11-19T12:20:44;2.82;76.82
71206;SHT31;58935;54.498;18.544;2023-11-19T12:23:12;2.84;76.76
71206;SHT31;58935;54.498;18.544;2023-11-19T12:25:42;2.82;76.82
71206;SHT31;58935;54.498;18.544;2023-11-19T12:28:12;2.82;76.94
71206;SHT31;58935;54.498;18.544;2023-11-19T12:30:38;2.83;77.02
71206;SHT31;58935;54.498;18.544;2023-11-19T12:38:07;2.80;77.29
71206;SHT31;58935;54.498;18.544;2023-11-19T12:40:34;2.79;77.50
71206;SHT31;58935;54.498;18.544;2023-11-19T12:43:00;2.79;77.57
71206;SHT31;58935;54.498;18.544;2023-11-19T12:45:34;2.76;77.54
71206;SHT31;58935;54.498;18.544;2023-11-19T12:51:02;2.73;78.09
71206;SHT31;58935;54.498;18.544;2023-11-19T12:53:18;2.73;78.21
71206;SHT31;58935;54.498;18.544;2023-11-19T12:55:46;2.72;78.22
71206;SHT31;58935;54.498;18.544;2023-11-19T13:00:43;2.70;78.49
71206;SHT31;58935;54.498;18.544;2023-11-19T13:03:13;2.71;78.56
71206;SHT31;58935;54.498;18.544;2023-11-19T13:08:36;2.71;78.68
71206;SHT31;58935;54.498;18.544;2023-11-19T13:11:03;2.67;78.79
71206;SHT31;58935;54.498;18.544;2023-11-19T13:13:29;2.65;78.85
71206;SHT31;58935;54.498;18.544;2023-11-19T13:16:01;2.64;78.96
71206;SHT31;58935;54.498;18.544;2023-11-19T13:18:30;2.62;79.04
71206;SHT31;58935;54.498;18.544;2023-11-19T13:20:56;2.61;79.15
71206;SHT31;58935;54.498;18.544;2023-11-19T13:23:22;2.59;79.19
71206;SHT31;58935;54.498;18.544;2023-11-19T13:25:48;2.57;79.28
71206;SHT31;58935;54.498;18.544;2023-11-19T13:28:14;2.58;79.49
71206;SHT31;58935;54.498;18.544;2023-11-19T13:30:42;2.60;79.47
71206;SHT31;58935;54.498;18.544;2023-11-19T13:33:07;2.60;79.42
71206;SHT31;58935;54.498;18.544;2023-11-19T13:35:32;2.61;79.40
71206;SHT31;58935;54.498;18.544;2023-11-19T13:37:58;2.61;79.36
71206;SHT31;58935;54.498;18.544;2023-11-19T13:40:25;2.59;79.17
71206;SHT31;58935;54.498;18.544;2023-11-19T13:42:51;2.57;79.26
71206;SHT31;58935;54.498;18.544;2023-11-19T13:45:21;2.57;79.37
71206;SHT31;58935;54.498;18.544;2023-11-19T13:47:49;2.58;79.41
71206;SHT31;58935;54.498;18.544;2023-11-19T13:50:15;2.57;79.30
71206;SHT31;58935;54.498;18.544;2023-11-19T13:52:43;2.56;79.25
71206;SHT31;58935;54.498;18.544;2023-11-19T13:55:12;2.56;79.34
71206;SHT31;58935;54.498;18.544;2023-11-19T13:57:39;2.58;79.42
71206;SHT31;58935;54.498;18.544;2023-11-19T14:00:06;2.60;79.50
71206;SHT31;58935;54.498;18.544;2023-11-19T14:02:38;2.60;79.65
71206;SHT31;58935;54.498;18.544;2023-11-19T14:05:06;2.61;79.83
71206;SHT31;58935;54.498;18.544;2023-11-19T14:07:32;2.61;79.84
71206;SHT31;58935;54.498;18.544;2023-11-19T14:09:58;2.62;79.87
71206;SHT31;58935;54.498;18.544;2023-11-19T14:12:23;2.62;79.80
71206;SHT31;58935;54.498;18.544;2023-11-19T14:14:49;2.63;79.80
71206;SHT31;58935;54.498;18.544;2023-11-19T14:17:14;2.65;79.87
71206;SHT31;58935;54.498;18.544;2023-11-19T14:19:43;2.65;79.93
71206;SHT31;58935;54.498;18.544;2023-11-19T14:22:09;2.65;80.04
71206;SHT31;58935;54.498;18.544;2023-11-19T14:24:34;2.64;80.09
71206;SHT31;58935;54.498;18.544;2023-11-19T14:27:00;2.63;80.11
71206;SHT31;58935;54.498;18.544;2023-11-19T14:29:26;2.61;80.17
71206;SHT31;58935;54.498;18.544;2023-11-19T14:31:53;2.60;80.20
71206;SHT31;58935;54.498;18.544;2023-11-19T14:34:19;2.59;80.37
71206;SHT31;58935;54.498;18.544;2023-11-19T14:36:45;2.57;80.49
71206;SHT31;58935;54.498;18.544;2023-11-19T14:39:11;2.57;80.62
71206;SHT31;58935;54.498;18.544;2023-11-19T14:41:36;2.57;80.87
71206;SHT31;58935;54.498;18.544;2023-11-19T14:44:02;2.58;81.00
71206;SHT31;58935;54.498;18.544;2023-11-19T14:46:28;2.57;81.08
71206;SHT31;58935;54.498;18.544;2023-11-19T14:48:54;2.57;81.19
71206;SHT31;58935;54.498;18.544;2023-11-19T14:51:19;2.55;81.30
71206;SHT31;58935;54.498;18.544;2023-11-19T14:53:45;2.54;81.41
71206;SHT31;58935;54.498;18.544;2023-11-19T14:56:11;2.52;81.52
71206;SHT31;58935;54.498;18.544;2023-11-19T14:58:38;2.51;81.63
71206;SHT31;58935;54.498;18.544;2023-11-19T15:01:03;2.51;81.89
71206;SHT31;58935;54.498;18.544;2023-11-19T15:03:32;2.50;81.93
71206;SHT31;58935;54.498;18.544;2023-11-19T15:05:57;2.49;81.96
71206;SHT31;58935;54.498;18.544;2023-11-19T15:08:23;2.50;81.96
71206;SHT31;58935;54.498;18.544;2023-11-19T15:10:48;2.51;82.02
71206;SHT31;58935;54.498;18.544;2023-11-19T15:13:13;2.52;82.06
71206;SHT31;58935;54.498;18.544;2023-11-19T15:15:39;2.52;82.14
71206;SHT31;58935;54.498;18.544;2023-11-19T15:18:04;2.50;82.24
71206;SHT31;58935;54.498;18.544;2023-11-19T15:20:30;2.51;82.29
71206;SHT31;58935;54.498;18.544;2023-11-19T15:22:56;2.53;82.38
71206;SHT31;58935;54.498;18.544;2023-11-19T15:25:25;2.52;82.39
71206;SHT31;58935;54.498;18.544;2023-11-19T15:27:50;2.52;82.40
71206;SHT31;58935;54.498;18.544;2023-11-19T15:30:18;2.51;82.39
71206;SHT31;58935;54.498;18.544;2023-11-19T15:32:43;2.50;82.40
71206;SHT31;58935;54.498;18.544;2023-11-19T15:35:11;2.49;82.50
71206;SHT31;58935;54.498;18.544;2023-11-19T15:37:40;2.47;82.44
71206;SHT31;58935;54.498;18.544;2023-11-19T15:40:09;2.46;82.65
71206;SHT31;58935;54.498;18.544;2023-11-19T15:42:37;2.46;82.89
71206;SHT31;58935;54.498;18.544;2023-11-19T15:45:06;2.45;82.94
71206;SHT31;58935;54.498;18.544;2023-11-19T15:47:32;2.44;83.00
71206;SHT31;58935;54.498;18.544;2023-11-19T15:50:00;2.43;83.13
71206;SHT31;58935;54.498;18.544;2023-11-19T15:52:26;2.41;83.17
71206;SHT31;58935;54.498;18.544;2023-11-19T15:54:55;2.38;83.17
71206;SHT31;58935;54.498;18.544;2023-11-19T15:57:21;2.38;83.22
71206;SHT31;58935;54.498;18.544;2023-11-19T15:59:46;2.37;83.30
71206;SHT31;58935;54.498;18.544;2023-11-19T16:02:13;2.37;83.20